Estación de Negrete
Ultimos registro cada 15 minutos 50
| N° | Estación | Fecha / Hora | Temperatura | Humedad | Lluvia | Velocidad | Dirección | Radiación | Presion |
| 50 | Negrete | 08-05-2026 12:15 | 9,7 | 93,5 | 0 | 0 | 6 | 94,4 | 1011,3 |
| 49 | Negrete | 08-05-2026 12:00 | 9,7 | 94,2 | 0 | 0 | 25 | 70,6 | 1011,3 |
| 48 | Negrete | 08-05-2026 11:45 | 9,5 | 94,6 | 0 | 0 | 6 | 79,4 | 1011,3 |
| 47 | Negrete | 08-05-2026 11:30 | 9,4 | 93,7 | 0 | 0 | 29 | 70,6 | 1011,4 |
| 46 | Negrete | 08-05-2026 11:15 | 9,2 | 93,7 | 0 | 0 | 39 | 76,9 | 1011,5 |
| 45 | Negrete | 08-05-2026 11:00 | 9,2 | 94,4 | 0 | 0 | 358 | 68,1 | 1011,6 |
| 44 | Negrete | 08-05-2026 10:45 | 9,2 | 95,1 | 0 | 0 | 60 | 75,6 | 1011,6 |
| 43 | Negrete | 08-05-2026 10:30 | 9 | 94,9 | 0,2 | 0 | 8 | 61,9 | 1011,6 |
| 42 | Negrete | 08-05-2026 10:15 | 8,7 | 95,4 | 0 | 0 | 13 | 60,6 | 1011,9 |
| 41 | Negrete | 08-05-2026 10:00 | 8,7 | 95,4 | 0 | 0 | 350 | 56,9 | 1011,9 |
| 40 | Negrete | 08-05-2026 09:45 | 8,8 | 95,9 | 0 | 0 | 352 | 113,1 | 1011,9 |
| 39 | Negrete | 08-05-2026 09:30 | 8,4 | 95,6 | 0 | 0 | 358 | 70,6 | 1011,9 |
| 38 | Negrete | 08-05-2026 09:15 | 8,2 | 96,2 | 0 | 0 | 4 | 70,6 | 1011,8 |
| 37 | Negrete | 08-05-2026 09:00 | 8 | 96,6 | 0 | 0 | 25 | 54,4 | 1011,7 |
| 36 | Negrete | 08-05-2026 08:45 | 7,9 | 96,6 | 0 | 0 | 7 | 23,1 | 1011,7 |
| 35 | Negrete | 08-05-2026 08:30 | 7,8 | 97 | 0 | 0 | 354 | 33,1 | 1011,4 |
| 34 | Negrete | 08-05-2026 08:15 | 7,6 | 97,3 | 0 | 0 | 341 | 14,4 | 1011,4 |
| 33 | Negrete | 08-05-2026 08:00 | 7,6 | 97,4 | 0 | 0 | 351 | 6,9 | 1011,1 |
| 32 | Negrete | 08-05-2026 07:45 | 7,6 | 97,4 | 0 | 0 | 7 | 1,9 | 1011 |
| 31 | Negrete | 08-05-2026 07:30 | 7,7 | 97,5 | 0,2 | 0 | 15 | 0,6 | 1011 |
| 30 | Negrete | 08-05-2026 07:15 | 7,8 | 97,5 | 0,4 | 0 | 24 | 0,6 | 1011,2 |
| 29 | Negrete | 08-05-2026 07:00 | 7,7 | 96,9 | 0,2 | 0 | 21 | 0,6 | 1011,1 |
| 28 | Negrete | 08-05-2026 06:45 | 7,8 | 96,9 | 0,2 | 0 | 341 | 0,6 | 1011 |
| 27 | Negrete | 08-05-2026 06:30 | 7,8 | 96,6 | 0 | 0 | 13 | 0,6 | 1010,8 |
| 26 | Negrete | 08-05-2026 06:15 | 7,8 | 97,2 | 0 | 0 | 32 | 0,6 | 1011 |
| 25 | Negrete | 08-05-2026 06:00 | 7,8 | 97,3 | 0 | 0 | 35 | 0,6 | 1010,9 |
| 24 | Negrete | 08-05-2026 05:45 | 7,8 | 97,2 | 0,4 | 0 | 358 | 0,6 | 1011 |
| 23 | Negrete | 08-05-2026 05:30 | 7,9 | 96,9 | 0,2 | 0 | 345 | 0,6 | 1011,1 |
| 22 | Negrete | 08-05-2026 05:15 | 7,9 | 96,7 | 0,2 | 0 | 355 | 0,6 | 1011,1 |
| 21 | Negrete | 08-05-2026 05:00 | 7,9 | 96,8 | 0 | 0 | 354 | 0,6 | 1011,3 |
| 20 | Negrete | 08-05-2026 04:45 | 7,9 | 96,6 | 0 | 0 | 11 | 0,6 | 1011,2 |
| 19 | Negrete | 08-05-2026 04:30 | 7,9 | 96,6 | 0,2 | 0 | 0 | 0,6 | 1011,4 |
| 18 | Negrete | 08-05-2026 04:15 | 8,1 | 96,7 | 0,2 | 0 | 7 | 0,6 | 1011,4 |
| 17 | Negrete | 08-05-2026 04:00 | 8,1 | 96,3 | 0 | 0 | 29 | 0,6 | 1011,7 |
| 16 | Negrete | 08-05-2026 03:45 | 8,1 | 95,5 | 0 | 0 | 355 | 0,6 | 1011,9 |
| 15 | Negrete | 08-05-2026 03:30 | 8,4 | 92,9 | 0,2 | 0 | 3 | 0,6 | 1011,9 |
| 14 | Negrete | 08-05-2026 03:15 | 8,5 | 91,6 | 0 | 0 | 4 | 0,6 | 1012,4 |
| 13 | Negrete | 08-05-2026 03:00 | 8,5 | 91,9 | 0 | 0 | 14 | 0,6 | 1012,3 |
| 12 | Negrete | 08-05-2026 02:45 | 8,5 | 90,6 | 0 | 0 | 11 | 0,6 | 1012,4 |
| 11 | Negrete | 08-05-2026 02:30 | 8,4 | 91,2 | 0 | 0 | 338 | 0,6 | 1012,4 |
| 10 | Negrete | 08-05-2026 02:15 | 8,5 | 90,7 | 0 | 0 | 3 | 0,6 | 1012,6 |
| 9 | Negrete | 08-05-2026 02:00 | 8,4 | 90,9 | 0 | 0 | 0 | 0,6 | 1012,7 |
| 8 | Negrete | 08-05-2026 01:45 | 8,3 | 91,1 | 0 | 0 | 1 | 0,6 | 1012,9 |
| 7 | Negrete | 08-05-2026 01:30 | 8,2 | 92,6 | 0 | 0 | 8 | 0,6 | 1013 |
| 6 | Negrete | 08-05-2026 01:15 | 8,1 | 92,9 | 0 | 0 | 1 | 0,6 | 1013,5 |
| 5 | Negrete | 08-05-2026 01:00 | 8,1 | 93,1 | 0 | 0 | 1 | 0,6 | 1013,9 |
| 4 | Negrete | 08-05-2026 00:45 | 8 | 94 | 0 | 0 | 0 | 0,6 | 1013,8 |
| 3 | Negrete | 08-05-2026 00:30 | 7,9 | 93,7 | 0 | 0 | 0 | 0,6 | 1013,9 |
| 2 | Negrete | 08-05-2026 00:15 | 7,9 | 94,2 | 0 | 0 | 0 | 0,6 | 1014,1 |
| 1 | Negrete | 08-05-2026 00:00 | 7,9 | 93,3 | 0 | 0 | 0 | 0,6 | 1014,2 |